Time;durP1;ratioP1;P1;durP2;ratioP2;P2;SDS_P1;SDS_P2;PMS_P1;PMS_P2;Temp;Humidity;BMP_temperature;BMP_pressure;BME280_temperature;BME280_humidity;BME280_pressure;Samples;Min_cycle;Max_cycle;Signal;HPM_P1;HPM_P2
2024/02/25 00:00:34;;;;;;;4.75;2.35;;;;;;;;;;5013036;28;20144;-57
2024/02/25 00:03:00;;;;;;;4.32;2.60;;;;;;;;;;5010607;28;20033;-56
2024/02/25 00:05:26;;;;;;;3.20;2.30;;;;;;;;;;5013638;28;20045;-56
2024/02/25 00:07:52;;;;;;;5.75;2.85;;;;;;;;;;5011480;28;20033;-57
2024/02/25 00:10:18;;;;;;;3.33;1.90;;;;;;;;;;5012993;28;20026;-58
2024/02/25 00:12:44;;;;;;;3.28;1.98;;;;;;;;;;5007616;28;20030;-57
2024/02/25 00:15:10;;;;;;;2.60;2.10;;;;;;;;;;5012406;28;20042;-52
2024/02/25 00:17:36;;;;;;;3.45;1.77;;;;;;;;;;5013761;28;20045;-54
2024/02/25 00:20:02;;;;;;;2.72;1.83;;;;;;;;;;5012148;28;20030;-55
2024/02/25 00:22:29;;;;;;;3.85;2.05;;;;;;;;;;5013382;28;20447;-57
2024/02/25 00:24:55;;;;;;;2.67;1.73;;;;;;;;;;5013808;28;20088;-57
2024/02/25 00:27:21;;;;;;;4.90;1.80;;;;;;;;;;5012832;28;20408;-57
2024/02/25 00:29:48;;;;;;;1.70;1.33;;;;;;;;;;5025028;28;20104;-56
2024/02/25 00:32:14;;;;;;;2.42;1.80;;;;;;;;;;5019986;28;20574;-53
2024/02/25 00:34:40;;;;;;;4.13;1.90;;;;;;;;;;5008967;28;20030;-57
2024/02/25 00:37:06;;;;;;;2.75;1.90;;;;;;;;;;5012337;28;20147;-57
2024/02/25 00:39:32;;;;;;;2.67;2.00;;;;;;;;;;5011419;28;20026;-57
2024/02/25 00:42:01;;;;;;;5.25;1.85;;;;;;;;;;5009433;28;20033;-57
2024/02/25 00:44:27;;;;;;;3.88;1.70;;;;;;;;;;5000710;28;20077;-57
2024/02/25 00:46:53;;;;;;;2.58;1.73;;;;;;;;;;5002198;28;20466;-58
2024/02/25 00:49:19;;;;;;;2.35;1.88;;;;;;;;;;5011393;28;20033;-56
2024/02/25 00:51:45;;;;;;;2.80;1.40;;;;;;;;;;5009672;28;20022;-57
2024/02/25 00:54:11;;;;;;;1.52;1.42;;;;;;;;;;5006232;28;20124;-56
2024/02/25 00:56:37;;;;;;;1.38;1.08;;;;;;;;;;5012392;28;20165;-55
2024/02/25 00:59:03;;;;;;;2.80;1.67;;;;;;;;;;5012597;28;20037;-57
2024/02/25 01:01:29;;;;;;;1.95;1.55;;;;;;;;;;5012837;28;20048;-56
2024/02/25 01:03:55;;;;;;;3.40;1.85;;;;;;;;;;5011438;28;20361;-55
2024/02/25 01:06:21;;;;;;;4.22;2.05;;;;;;;;;;5005472;28;20088;-56
2024/02/25 01:08:47;;;;;;;4.90;2.55;;;;;;;;;;5004283;28;20061;-57
2024/02/25 01:11:14;;;;;;;2.58;1.60;;;;;;;;;;5012020;28;20080;-57
2024/02/25 01:13:40;;;;;;;3.38;2.72;;;;;;;;;;5012373;28;20084;-56
2024/02/25 01:16:06;;;;;;;4.72;1.95;;;;;;;;;;5012319;28;20022;-56
2024/02/25 01:18:32;;;;;;;4.90;2.20;;;;;;;;;;5012241;28;20049;-54
2024/02/25 01:20:58;;;;;;;2.65;1.85;;;;;;;;;;5007984;28;20022;-52
2024/02/25 01:23:24;;;;;;;3.25;1.52;;;;;;;;;;5008155;28;20368;-53
2024/02/25 01:25:50;;;;;;;3.50;2.10;;;;;;;;;;5005375;28;20109;-55
2024/02/25 01:28:16;;;;;;;2.75;1.42;;;;;;;;;;5009773;28;20045;-55
2024/02/25 01:30:45;;;;;;;4.57;1.58;;;;;;;;;;5010096;28;20100;-57
2024/02/25 01:33:11;;;;;;;4.07;1.75;;;;;;;;;;5006321;28;20026;-55
2024/02/25 01:35:37;;;;;;;2.65;1.58;;;;;;;;;;5012357;28;20168;-56
2024/02/25 01:38:03;;;;;;;2.60;1.60;;;;;;;;;;5000145;28;20018;-55
2024/02/25 01:40:29;;;;;;;3.30;1.85;;;;;;;;;;5011786;28;20088;-56
2024/02/25 01:43:11;;;;;;;3.83;1.83;;;;;;;;;;5008688;28;20412;-55
2024/02/25 01:45:38;;;;;;;3.28;1.40;;;;;;;;;;5012034;28;20026;-53
2024/02/25 01:48:05;;;;;;;3.15;1.80;;;;;;;;;;5011957;28;20054;-53
2024/02/25 01:50:32;;;;;;;1.48;1.35;;;;;;;;;;5014577;28;20092;-56
2024/02/25 01:52:58;;;;;;;4.05;1.88;;;;;;;;;;5015486;28;20025;-57
2024/02/25 01:55:24;;;;;;;2.58;1.60;;;;;;;;;;5010830;28;20431;-52
2024/02/25 01:57:51;;;;;;;4.90;2.08;;;;;;;;;;5015805;28;20014;-54
2024/02/25 02:00:17;;;;;;;2.50;1.83;;;;;;;;;;5013839;28;20100;-52
2024/02/25 02:02:44;;;;;;;4.38;1.90;;;;;;;;;;5015536;28;20026;-55
2024/02/25 02:05:10;;;;;;;2.47;2.08;;;;;;;;;;5015829;28;20026;-54
2024/02/25 02:07:38;;;;;;;3.80;1.65;;;;;;;;;;5014686;28;20042;-57
2024/02/25 02:10:10;;;;;;;2.78;1.80;;;;;;;;;;5011287;28;20233;-57
2024/02/25 02:12:40;;;;;;;3.33;1.80;;;;;;;;;;5013609;28;20104;-55
2024/02/25 02:15:06;;;;;;;2.65;1.73;;;;;;;;;;5009834;28;20187;-57
2024/02/25 02:17:33;;;;;;;2.83;1.50;;;;;;;;;;5004657;28;20026;-56
2024/02/25 02:20:00;;;;;;;4.43;2.08;;;;;;;;;;5007792;28;20068;-57
2024/02/25 02:22:26;;;;;;;3.03;2.55;;;;;;;;;;5012944;28;20022;-53
2024/02/25 02:24:52;;;;;;;5.40;3.42;;;;;;;;;;5014246;28;20053;-54
2024/02/25 02:27:18;;;;;;;2.30;2.10;;;;;;;;;;5015107;28;20022;-56
2024/02/25 02:29:44;;;;;;;4.38;2.70;;;;;;;;;;5009731;28;20226;-53
2024/02/25 02:32:10;;;;;;;3.70;2.70;;;;;;;;;;5009942;28;20028;-56
2024/02/25 02:34:36;;;;;;;3.25;2.45;;;;;;;;;;5005487;28;20121;-55
2024/02/25 02:37:02;;;;;;;2.92;2.65;;;;;;;;;;5005855;28;20026;-56
2024/02/25 02:39:28;;;;;;;6.75;2.88;;;;;;;;;;5014878;28;20454;-55
2024/02/25 02:41:56;;;;;;;3.40;2.88;;;;;;;;;;5012310;28;20022;-56
2024/02/25 02:44:22;;;;;;;3.65;2.67;;;;;;;;;;5018252;28;20037;-57
2024/02/25 02:46:48;;;;;;;2.63;2.28;;;;;;;;;;5012419;28;20037;-53
2024/02/25 02:49:14;;;;;;;5.55;2.75;;;;;;;;;;5015159;28;20054;-54
2024/02/25 02:51:40;;;;;;;3.47;2.38;;;;;;;;;;5006637;28;20061;-57
2024/02/25 02:54:06;;;;;;;3.80;2.92;;;;;;;;;;5005373;28;20322;-52
2024/02/25 02:56:32;;;;;;;4.72;3.40;;;;;;;;;;5014691;28;20109;-53
2024/02/25 02:58:58;;;;;;;4.40;2.58;;;;;;;;;;5012634;28;20029;-54
2024/02/25 03:01:24;;;;;;;2.97;2.60;;;;;;;;;;5007613;28;20042;-53
2024/02/25 03:03:50;;;;;;;4.82;2.80;;;;;;;;;;5014562;28;20499;-55
2024/02/25 03:06:19;;;;;;;4.15;2.45;;;;;;;;;;5014530;28;20392;-56
2024/02/25 03:08:46;;;;;;;5.38;3.05;;;;;;;;;;5014324;28;20108;-53
2024/02/25 03:11:12;;;;;;;3.10;2.50;;;;;;;;;;5009496;28;20046;-57
2024/02/25 03:13:38;;;;;;;3.50;2.80;;;;;;;;;;5011674;28;20107;-52
2024/02/25 03:16:04;;;;;;;4.32;2.90;;;;;;;;;;5003110;28;20025;-54
2024/02/25 03:18:30;;;;;;;4.38;2.60;;;;;;;;;;5014151;28;20025;-52
2024/02/25 03:20:57;;;;;;;2.92;2.22;;;;;;;;;;5008148;28;20408;-54
2024/02/25 03:23:23;;;;;;;2.13;1.90;;;;;;;;;;5012434;28;20029;-56
2024/02/25 03:25:50;;;;;;;3.35;2.38;;;;;;;;;;5010614;28;20108;-53
2024/02/25 03:28:16;;;;;;;2.20;1.42;;;;;;;;;;5006509;28;20061;-53
2024/02/25 03:30:42;;;;;;;3.10;2.00;;;;;;;;;;5013290;28;20049;-55
2024/02/25 03:33:08;;;;;;;3.38;1.85;;;;;;;;;;5011834;28;20026;-55
2024/02/25 03:35:34;;;;;;;1.95;1.65;;;;;;;;;;5014138;28;20036;-53
2024/02/25 03:38:02;;;;;;;1.30;1.20;;;;;;;;;;5005673;28;20056;-56
2024/02/25 03:40:28;;;;;;;2.28;1.58;;;;;;;;;;5008029;28;20105;-58
2024/02/25 03:42:55;;;;;;;2.40;1.50;;;;;;;;;;5011141;28;20434;-57
2024/02/25 03:45:21;;;;;;;1.98;1.58;;;;;;;;;;5014077;28;20109;-57
2024/02/25 03:47:49;;;;;;;2.15;1.25;;;;;;;;;;5001949;28;20060;-56
2024/02/25 03:50:15;;;;;;;2.70;1.40;;;;;;;;;;5013738;28;20026;-57
2024/02/25 03:52:41;;;;;;;1.88;1.27;;;;;;;;;;5005773;28;20072;-55
2024/02/25 03:55:07;;;;;;;4.13;1.65;;;;;;;;;;5011630;28;20407;-56
2024/02/25 03:57:33;;;;;;;1.95;1.00;;;;;;;;;;5013733;28;20061;-53
2024/02/25 03:59:59;;;;;;;1.52;1.30;;;;;;;;;;5010597;28;20058;-56
2024/02/25 04:02:26;;;;;;;3.13;1.40;;;;;;;;;;5010781;28;20141;-54
2024/02/25 04:04:52;;;;;;;1.35;1.25;;;;;;;;;;5010794;28;20037;-55
2024/02/25 04:07:18;;;;;;;4.15;1.60;;;;;;;;;;5001757;28;20368;-57
2024/02/25 04:09:44;;;;;;;6.88;3.05;;;;;;;;;;5001645;28;20056;-55
2024/02/25 04:12:10;;;;;;;2.85;2.10;;;;;;;;;;5004710;28;20076;-57
2024/02/25 04:14:36;;;;;;;4.40;2.88;;;;;;;;;;5005170;28;20050;-56
2024/02/25 04:17:03;;;;;;;4.25;2.90;;;;;;;;;;5009270;28;20026;-55
2024/02/25 04:19:29;;;;;;;4.70;3.70;;;;;;;;;;5012156;28;20401;-55
2024/02/25 04:21:55;;;;;;;6.97;3.83;;;;;;;;;;5008122;28;20487;-56
2024/02/25 04:24:21;;;;;;;4.03;3.42;;;;;;;;;;5015316;28;20026;-54
2024/02/25 04:26:47;;;;;;;4.45;3.97;;;;;;;;;;5011160;28;20405;-57
2024/02/25 04:29:13;;;;;;;5.05;3.08;;;;;;;;;;5012842;28;20030;-56
2024/02/25 04:31:43;;;;;;;4.38;3.83;;;;;;;;;;5012683;28;20033;-55
2024/02/25 04:34:09;;;;;;;4.45;4.05;;;;;;;;;;5008695;28;20038;-55
2024/02/25 04:36:35;;;;;;;6.90;3.88;;;;;;;;;;5012008;28;20110;-57
2024/02/25 04:39:02;;;;;;;4.20;3.80;;;;;;;;;;5009202;28;20395;-54
2024/02/25 04:41:29;;;;;;;3.70;3.40;;;;;;;;;;5004446;28;20586;-57
2024/02/25 04:43:55;;;;;;;4.65;3.28;;;;;;;;;;5012020;28;20113;-57
2024/02/25 04:46:21;;;;;;;4.35;3.65;;;;;;;;;;5009764;28;20021;-57
2024/02/25 04:48:48;;;;;;;4.03;3.65;;;;;;;;;;5009723;28;20022;-53
2024/02/25 04:51:39;;;;;;;3.95;3.60;;;;;;;;;;5009604;28;20149;-55
2024/02/25 04:54:05;;;;;;;3.80;3.28;;;;;;;;;;5008033;28;20041;-57
2024/02/25 04:56:31;;;;;;;4.28;3.42;;;;;;;;;;5008076;28;20022;-57
2024/02/25 04:58:57;;;;;;;6.03;4.03;;;;;;;;;;5008269;28;20017;-57
2024/02/25 05:01:23;;;;;;;5.20;3.60;;;;;;;;;;5007799;28;20129;-56
2024/02/25 05:03:49;;;;;;;4.43;3.55;;;;;;;;;;5012564;28;20032;-56
2024/02/25 05:06:15;;;;;;;4.18;3.78;;;;;;;;;;5011918;28;20471;-58
2024/02/25 05:08:41;;;;;;;4.00;3.58;;;;;;;;;;5012462;28;20022;-56
2024/02/25 05:11:07;;;;;;;4.97;3.85;;;;;;;;;;5012587;28;20530;-58
2024/02/25 05:13:33;;;;;;;3.58;3.25;;;;;;;;;;5012654;28;20030;-55
2024/02/25 05:15:59;;;;;;;5.30;3.70;;;;;;;;;;5012230;28;20390;-55
2024/02/25 05:18:28;;;;;;;4.03;3.63;;;;;;;;;;5001891;28;20038;-57
2024/02/25 05:20:54;;;;;;;4.32;3.42;;;;;;;;;;5008949;28;20030;-57
2024/02/25 05:23:19;;;;;;;5.00;3.63;;;;;;;;;;5011475;28;20026;-57
2024/02/25 05:25:46;;;;;;;5.78;3.55;;;;;;;;;;5007695;28;20392;-56
2024/02/25 05:28:12;;;;;;;4.05;3.60;;;;;;;;;;5003199;28;20099;-57
2024/02/25 05:30:38;;;;;;;4.72;3.60;;;;;;;;;;5010281;28;20117;-55
2024/02/25 05:33:04;;;;;;;4.75;3.60;;;;;;;;;;5008546;28;20026;-54
2024/02/25 05:35:30;;;;;;;2.72;2.47;;;;;;;;;;4998624;28;20113;-53
2024/02/25 05:37:56;;;;;;;4.15;3.53;;;;;;;;;;5022203;28;20183;-55
2024/02/25 05:40:22;;;;;;;5.55;3.17;;;;;;;;;;5008887;28;20026;-57
2024/02/25 05:42:48;;;;;;;3.63;3.30;;;;;;;;;;5001497;28;20104;-56
2024/02/25 05:45:15;;;;;;;3.53;2.97;;;;;;;;;;5006986;28;20018;-56
2024/02/25 05:47:41;;;;;;;5.50;3.92;;;;;;;;;;5011826;28;20034;-57
2024/02/25 05:50:07;;;;;;;3.03;2.75;;;;;;;;;;5004004;28;20029;-54
2024/02/25 05:52:33;;;;;;;4.15;3.45;;;;;;;;;;5010893;28;20029;-55
2024/02/25 05:54:59;;;;;;;3.97;3.00;;;;;;;;;;5013688;28;20205;-57
2024/02/25 05:57:25;;;;;;;4.47;3.03;;;;;;;;;;5010516;28;20472;-55
2024/02/25 05:59:52;;;;;;;5.05;3.22;;;;;;;;;;5011822;28;20157;-55
2024/02/25 06:02:18;;;;;;;2.90;2.67;;;;;;;;;;5006745;28;20120;-56
2024/02/25 06:04:44;;;;;;;4.57;3.20;;;;;;;;;;5010521;28;20026;-55
2024/02/25 06:07:09;;;;;;;4.63;3.00;;;;;;;;;;5005250;28;20490;-57
2024/02/25 06:09:36;;;;;;;4.43;2.83;;;;;;;;;;5003095;28;20069;-55
2024/02/25 06:12:03;;;;;;;4.30;3.22;;;;;;;;;;5006392;28;20018;-54
2024/02/25 06:14:30;;;;;;;3.60;3.28;;;;;;;;;;5001648;28;20534;-55
2024/02/25 06:16:56;;;;;;;4.40;3.10;;;;;;;;;;5010708;28;20072;-51
2024/02/25 06:19:22;;;;;;;3.55;2.88;;;;;;;;;;5003480;28;20030;-57
2024/02/25 06:21:48;;;;;;;5.50;3.72;;;;;;;;;;5008071;28;20051;-56
2024/02/25 06:24:14;;;;;;;5.18;3.53;;;;;;;;;;5007732;28;20113;-57
2024/02/25 06:26:44;;;;;;;5.00;3.78;;;;;;;;;;5011679;28;20029;-56
2024/02/25 06:29:10;;;;;;;3.53;3.10;;;;;;;;;;5000134;28;20033;-57
2024/02/25 06:31:36;;;;;;;3.55;2.95;;;;;;;;;;5002063;28;20018;-54
2024/02/25 06:34:02;;;;;;;5.82;3.78;;;;;;;;;;5011336;28;20124;-53
2024/02/25 06:36:28;;;;;;;4.75;4.22;;;;;;;;;;5002520;28;20173;-58
2024/02/25 06:38:55;;;;;;;4.18;3.28;;;;;;;;;;5006193;28;20164;-56
2024/02/25 06:41:22;;;;;;;4.95;3.75;;;;;;;;;;5009548;28;20027;-57
2024/02/25 06:43:48;;;;;;;4.63;3.20;;;;;;;;;;5013186;28;20034;-54
2024/02/25 06:46:14;;;;;;;4.03;3.67;;;;;;;;;;5013727;28;20040;-57
2024/02/25 06:48:40;;;;;;;4.85;3.42;;;;;;;;;;5004704;28;20041;-56
2024/02/25 06:51:06;;;;;;;5.55;4.18;;;;;;;;;;5009604;28;20026;-57
2024/02/25 06:53:33;;;;;;;5.75;3.75;;;;;;;;;;5013275;28;20038;-57
2024/02/25 06:55:59;;;;;;;4.30;3.72;;;;;;;;;;5014849;28;20026;-57
2024/02/25 06:58:25;;;;;;;4.75;4.00;;;;;;;;;;5014629;28;20101;-56
2024/02/25 07:00:51;;;;;;;3.97;3.45;;;;;;;;;;5017154;28;20120;-56
2024/02/25 07:03:18;;;;;;;6.43;4.82;;;;;;;;;;5014499;28;20069;-56
2024/02/25 07:05:44;;;;;;;7.97;4.30;;;;;;;;;;5015136;28;20022;-57
2024/02/25 07:08:10;;;;;;;3.67;3.38;;;;;;;;;;5014470;28;20037;-57
2024/02/25 07:10:36;;;;;;;5.78;4.03;;;;;;;;;;5006495;28;20120;-55
2024/02/25 07:13:03;;;;;;;5.95;4.38;;;;;;;;;;5014096;28;20041;-56
2024/02/25 07:15:29;;;;;;;9.65;5.07;;;;;;;;;;5014084;28;20037;-56
2024/02/25 07:17:55;;;;;;;6.10;5.50;;;;;;;;;;5008626;28;20041;-60
2024/02/25 07:20:21;;;;;;;6.45;5.45;;;;;;;;;;5012506;28;20030;-60
2024/02/25 07:22:47;;;;;;;8.45;6.00;;;;;;;;;;5013237;28;20207;-60
2024/02/25 07:25:14;;;;;;;7.90;5.68;;;;;;;;;;5013929;28;20064;-60
2024/02/25 07:27:40;;;;;;;6.97;5.55;;;;;;;;;;5013822;28;20038;-60
2024/02/25 07:30:06;;;;;;;7.03;5.93;;;;;;;;;;5012398;28;20060;-60
2024/02/25 07:32:32;;;;;;;6.75;4.53;;;;;;;;;;5009890;28;20088;-60
2024/02/25 07:34:59;;;;;;;4.93;4.25;;;;;;;;;;5011744;28;20034;-60
2024/02/25 07:37:29;;;;;;;5.45;4.10;;;;;;;;;;5009471;28;20069;-60
2024/02/25 07:39:54;;;;;;;4.43;4.00;;;;;;;;;;4994288;28;20062;-60
2024/02/25 07:42:20;;;;;;;5.43;4.40;;;;;;;;;;5002276;28;20038;-60
2024/02/25 07:44:46;;;;;;;5.38;4.13;;;;;;;;;;5006563;28;20153;-60
2024/02/25 07:47:12;;;;;;;4.40;3.97;;;;;;;;;;5008513;28;20040;-59
2024/02/25 07:49:38;;;;;;;7.72;3.63;;;;;;;;;;5007169;28;20399;-60
2024/02/25 07:52:04;;;;;;;5.82;4.43;;;;;;;;;;5013047;28;20026;-61
2024/02/25 07:54:30;;;;;;;5.55;4.32;;;;;;;;;;5010740;28;20137;-60
2024/02/25 07:56:56;;;;;;;5.55;4.35;;;;;;;;;;5012704;28;20163;-60
2024/02/25 07:59:22;;;;;;;5.63;4.28;;;;;;;;;;5001348;28;20037;-59
2024/02/25 08:01:48;;;;;;;7.60;5.68;;;;;;;;;;5010280;28;20458;-60
2024/02/25 08:04:14;;;;;;;9.32;6.40;;;;;;;;;;5012021;28;20184;-60
2024/02/25 08:06:40;;;;;;;13.45;8.63;;;;;;;;;;5014999;28;20022;-60
2024/02/25 08:09:06;;;;;;;8.43;7.10;;;;;;;;;;5004299;28;20488;-59
2024/02/25 08:11:33;;;;;;;9.57;7.18;;;;;;;;;;5011839;28;20551;-60
2024/02/25 08:13:59;;;;;;;7.80;7.00;;;;;;;;;;5010691;28;20037;-60
2024/02/25 08:16:26;;;;;;;9.35;6.80;;;;;;;;;;5012413;28;20072;-59
2024/02/25 08:18:52;;;;;;;8.52;6.60;;;;;;;;;;5008041;28;20105;-59
2024/02/25 08:21:18;;;;;;;9.73;7.57;;;;;;;;;;5012495;28;20120;-59
2024/02/25 08:23:44;;;;;;;11.82;7.90;;;;;;;;;;5008384;28;20451;-59
2024/02/25 08:26:10;;;;;;;9.32;8.00;;;;;;;;;;5005668;28;20025;-60
2024/02/25 08:28:37;;;;;;;15.95;8.20;;;;;;;;;;5008448;28;20018;-56
2024/02/25 08:31:03;;;;;;;10.65;8.82;;;;;;;;;;5010494;28;20112;-57
2024/02/25 08:33:29;;;;;;;11.25;9.02;;;;;;;;;;5010094;28;20120;-58
2024/02/25 08:35:56;;;;;;;12.98;8.50;;;;;;;;;;5010492;28;20065;-57
2024/02/25 08:38:22;;;;;;;10.45;8.35;;;;;;;;;;5010281;28;20411;-57
2024/02/25 08:40:48;;;;;;;10.70;8.75;;;;;;;;;;5009816;28;20034;-58
2024/02/25 08:43:14;;;;;;;12.85;9.10;;;;;;;;;;5011199;28;20365;-58
2024/02/25 08:45:40;;;;;;;14.13;9.43;;;;;;;;;;5007183;28;20022;-57
2024/02/25 08:48:06;;;;;;;18.25;11.10;;;;;;;;;;5011582;28;20467;-57
2024/02/25 08:50:32;;;;;;;14.73;11.23;;;;;;;;;;5007976;28;20025;-56
2024/02/25 08:52:58;;;;;;;14.05;10.45;;;;;;;;;;5005262;28;20037;-56
2024/02/25 08:55:24;;;;;;;12.23;10.73;;;;;;;;;;5014008;28;20435;-58
2024/02/25 08:57:50;;;;;;;16.98;12.25;;;;;;;;;;5012145;28;20032;-59
2024/02/25 09:00:16;;;;;;;17.08;13.10;;;;;;;;;;5011871;28;20054;-58
2024/02/25 09:02:42;;;;;;;17.05;12.85;;;;;;;;;;5008368;28;20030;-56
2024/02/25 09:05:08;;;;;;;18.83;13.02;;;;;;;;;;5011583;28;20029;-55
2024/02/25 09:07:38;;;;;;;19.77;12.25;;;;;;;;;;5007138;28;20033;-56
2024/02/25 09:10:08;;;;;;;15.40;11.30;;;;;;;;;;5010864;28;20365;-54
2024/02/25 09:12:36;;;;;;;13.05;10.10;;;;;;;;;;5007346;28;20030;-57
2024/02/25 09:15:02;;;;;;;14.27;10.70;;;;;;;;;;5010585;28;20034;-57
2024/02/25 09:17:28;;;;;;;16.13;12.65;;;;;;;;;;5011194;28;20424;-57
2024/02/25 09:19:54;;;;;;;19.17;13.93;;;;;;;;;;5011605;28;20040;-57
2024/02/25 09:22:20;;;;;;;22.45;14.50;;;;;;;;;;5008209;28;20026;-57
2024/02/25 09:24:46;;;;;;;16.92;13.80;;;;;;;;;;5009501;28;20117;-57
2024/02/25 09:27:12;;;;;;;23.35;16.65;;;;;;;;;;5025527;28;20014;-58
2024/02/25 09:29:45;;;;;;;23.83;15.73;;;;;;;;;;5011536;28;20109;-57
2024/02/25 09:32:11;;;;;;;22.42;15.82;;;;;;;;;;5011861;28;20401;-57
2024/02/25 09:34:40;;;;;;;19.67;15.32;;;;;;;;;;5009234;28;20056;-56
2024/02/25 09:37:06;;;;;;;20.77;16.45;;;;;;;;;;5005500;28;20050;-55
2024/02/25 09:39:32;;;;;;;21.27;15.13;;;;;;;;;;5012245;28;20416;-54
2024/02/25 09:41:58;;;;;;;19.25;15.43;;;;;;;;;;5034763;28;20049;-55
2024/02/25 09:44:25;;;;;;;21.20;16.27;;;;;;;;;;5007099;28;20507;-55
2024/02/25 09:46:52;;;;;;;19.95;15.27;;;;;;;;;;5006044;28;20342;-57
2024/02/25 09:49:19;;;;;;;18.95;13.88;;;;;;;;;;5009969;28;20116;-56
2024/02/25 09:51:49;;;;;;;19.98;13.07;;;;;;;;;;5001541;28;20499;-55
2024/02/25 09:54:15;;;;;;;18.63;13.93;;;;;;;;;;5012038;28;20109;-57
2024/02/25 09:56:42;;;;;;;16.20;13.98;;;;;;;;;;5015061;28;20058;-55
2024/02/25 09:59:09;;;;;;;18.05;13.80;;;;;;;;;;5017690;28;20434;-55
2024/02/25 10:01:35;;;;;;;19.15;14.63;;;;;;;;;;5010218;28;20042;-57
2024/02/25 10:04:01;;;;;;;17.35;13.65;;;;;;;;;;5004996;28;20030;-56
2024/02/25 10:06:27;;;;;;;15.73;13.45;;;;;;;;;;5010827;28;20518;-57
2024/02/25 10:08:53;;;;;;;16.45;12.95;;;;;;;;;;5008820;28;20049;-56
2024/02/25 10:11:19;;;;;;;17.15;13.70;;;;;;;;;;5015093;28;20022;-56
2024/02/25 10:13:46;;;;;;;19.38;13.98;;;;;;;;;;5010795;28;20086;-56
2024/02/25 10:16:16;;;;;;;22.30;14.73;;;;;;;;;;5006990;28;20480;-53
2024/02/25 10:18:43;;;;;;;19.25;15.20;;;;;;;;;;5008463;28;20404;-54
2024/02/25 10:21:09;;;;;;;25.02;18.85;;;;;;;;;;5005299;28;20334;-57
2024/02/25 10:23:35;;;;;;;23.30;17.65;;;;;;;;;;5007774;28;20084;-54
2024/02/25 10:26:11;;;;;;;20.05;17.00;;;;;;;;;;5008759;28;20057;-52
2024/02/25 10:28:37;;;;;;;22.80;17.40;;;;;;;;;;5021176;28;20086;-57
2024/02/25 10:31:08;;;;;;;21.20;17.02;;;;;;;;;;5010697;28;20037;-54
2024/02/25 10:33:34;;;;;;;22.73;16.98;;;;;;;;;;5004875;28;20030;-56
2024/02/25 10:36:25;;;;;;;19.80;15.40;;;;;;;;;;5012065;28;20025;-56
2024/02/25 10:38:53;;;;;;;15.40;10.88;;;;;;;;;;5002973;28;20031;-60
2024/02/25 10:41:19;;;;;;;14.38;11.48;;;;;;;;;;5003850;28;20034;-59
2024/02/25 10:43:47;;;;;;;14.65;10.13;;;;;;;;;;5024362;28;20109;-58
2024/02/25 10:46:17;;;;;;;13.75;10.10;;;;;;;;;;5007017;28;20121;-57
2024/02/25 10:48:43;;;;;;;11.85;10.00;;;;;;;;;;5007022;28;20049;-58
2024/02/25 10:51:10;;;;;;;15.23;11.70;;;;;;;;;;5006367;28;20025;-58
2024/02/25 10:53:41;;;;;;;15.65;11.30;;;;;;;;;;5009373;28;20558;-58
2024/02/25 10:56:11;;;;;;;14.55;11.32;;;;;;;;;;5009557;28;20044;-58
2024/02/25 10:58:37;;;;;;;14.57;10.95;;;;;;;;;;5010563;28;20479;-57
2024/02/25 11:01:03;;;;;;;14.93;11.77;;;;;;;;;;5008682;28;20045;-59
2024/02/25 11:03:30;;;;;;;12.00;9.82;;;;;;;;;;5008881;28;20022;-56
2024/02/25 11:05:57;;;;;;;14.50;10.40;;;;;;;;;;5001933;28;20435;-55
2024/02/25 11:08:27;;;;;;;12.02;9.95;;;;;;;;;;5018688;28;20384;-58
2024/02/25 11:10:59;;;;;;;14.32;9.88;;;;;;;;;;5006626;28;20037;-59
2024/02/25 11:13:26;;;;;;;10.32;9.32;;;;;;;;;;5005436;28;20026;-58
2024/02/25 11:15:54;;;;;;;9.77;8.50;;;;;;;;;;5007378;28;20107;-56
2024/02/25 11:18:30;;;;;;;10.45;8.18;;;;;;;;;;5009365;28;20373;-58
2024/02/25 11:21:05;;;;;;;9.80;8.10;;;;;;;;;;5005430;28;20022;-57
2024/02/25 11:23:41;;;;;;;13.82;9.43;;;;;;;;;;5007918;28;20034;-56
2024/02/25 11:26:26;;;;;;;13.00;8.10;;;;;;;;;;5010317;28;20021;-56
2024/02/25 11:29:11;;;;;;;9.88;8.20;;;;;;;;;;5009910;28;20025;-58
2024/02/25 11:31:52;;;;;;;11.57;8.82;;;;;;;;;;5006846;28;20022;-57
2024/02/25 11:34:21;;;;;;;10.00;7.97;;;;;;;;;;5006588;28;20034;-57
2024/02/25 11:37:15;;;;;;;12.88;10.07;;;;;;;;;;5014025;28;20034;-58
2024/02/25 11:39:41;;;;;;;11.32;7.43;;;;;;;;;;5002572;28;20431;-58
2024/02/25 11:42:07;;;;;;;13.20;8.88;;;;;;;;;;5012721;28;20038;-58
2024/02/25 11:44:34;;;;;;;11.93;9.00;;;;;;;;;;5014343;28;20050;-57
2024/02/25 11:47:01;;;;;;;8.98;8.15;;;;;;;;;;5012947;28;20025;-58
2024/02/25 11:49:29;;;;;;;8.82;7.78;;;;;;;;;;5014315;28;20472;-58
2024/02/25 11:51:55;;;;;;;10.32;8.38;;;;;;;;;;5011795;28;20053;-57
2024/02/25 11:54:22;;;;;;;9.23;7.85;;;;;;;;;;5010342;28;20049;-58
2024/02/25 11:56:51;;;;;;;9.35;8.20;;;;;;;;;;5006433;28;20495;-57
2024/02/25 11:59:20;;;;;;;12.18;9.00;;;;;;;;;;5012635;28;20056;-57
2024/02/25 12:01:49;;;;;;;9.00;6.57;;;;;;;;;;5011037;28;20026;-55
2024/02/25 12:04:16;;;;;;;10.40;8.00;;;;;;;;;;5015797;28;20025;-58
2024/02/25 12:06:42;;;;;;;7.50;6.00;;;;;;;;;;5017569;28;20037;-55
2024/02/25 12:09:09;;;;;;;8.82;6.75;;;;;;;;;;4999422;28;20030;-58
2024/02/25 12:11:35;;;;;;;7.50;6.05;;;;;;;;;;5012220;28;20037;-55
2024/02/25 12:14:14;;;;;;;8.98;6.25;;;;;;;;;;5007226;28;20037;-57
2024/02/25 12:16:40;;;;;;;7.78;6.18;;;;;;;;;;5012389;28;20036;-57
2024/02/25 12:19:06;;;;;;;8.32;6.25;;;;;;;;;;5010275;28;20097;-56
2024/02/25 12:21:32;;;;;;;10.82;5.95;;;;;;;;;;5013936;28;20221;-58
2024/02/25 12:23:59;;;;;;;5.80;5.20;;;;;;;;;;5013223;28;20030;-58
2024/02/25 12:26:25;;;;;;;7.18;5.43;;;;;;;;;;5013570;28;20025;-58
2024/02/25 12:28:51;;;;;;;6.00;4.80;;;;;;;;;;5013480;28;20049;-57
2024/02/25 12:31:17;;;;;;;7.88;5.40;;;;;;;;;;5019879;28;20057;-58
2024/02/25 12:33:46;;;;;;;8.07;5.93;;;;;;;;;;5006560;28;20030;-57
2024/02/25 12:36:12;;;;;;;7.00;4.97;;;;;;;;;;5013399;28;20494;-57
2024/02/25 12:38:48;;;;;;;8.02;5.60;;;;;;;;;;5013530;28;20101;-58
2024/02/25 12:41:15;;;;;;;6.18;5.32;;;;;;;;;;5000251;28;20387;-58
2024/02/25 12:43:44;;;;;;;5.63;5.00;;;;;;;;;;5013621;28;20033;-57
2024/02/25 12:46:10;;;;;;;6.30;4.80;;;;;;;;;;5010185;28;20018;-59
2024/02/25 12:48:36;;;;;;;8.27;5.05;;;;;;;;;;5004010;28;20495;-59
2024/02/25 12:51:02;;;;;;;6.53;5.72;;;;;;;;;;5014181;28;20072;-59
2024/02/25 12:53:30;;;;;;;6.53;5.45;;;;;;;;;;5006967;28;20030;-59
2024/02/25 12:55:56;;;;;;;5.65;5.03;;;;;;;;;;5006108;28;20539;-57
2024/02/25 12:58:22;;;;;;;5.35;4.55;;;;;;;;;;5013117;28;20089;-54
2024/02/25 13:00:50;;;;;;;5.18;4.68;;;;;;;;;;5013062;28;20049;-58
2024/02/25 13:03:16;;;;;;;5.57;4.97;;;;;;;;;;5013011;28;20101;-58
2024/02/25 13:05:42;;;;;;;6.05;4.60;;;;;;;;;;5010255;28;20101;-59
2024/02/25 13:08:08;;;;;;;6.03;5.40;;;;;;;;;;5012502;28;20064;-60
2024/02/25 13:10:39;;;;;;;6.65;5.18;;;;;;;;;;5012514;28;20026;-59
2024/02/25 13:13:05;;;;;;;5.53;4.72;;;;;;;;;;5010882;28;20151;-59
2024/02/25 13:15:31;;;;;;;6.47;4.70;;;;;;;;;;5012857;28;20041;-59
2024/02/25 13:17:59;;;;;;;5.57;4.80;;;;;;;;;;5012682;28;20026;-59
2024/02/25 13:20:25;;;;;;;8.68;5.82;;;;;;;;;;5016046;28;20026;-59
2024/02/25 13:22:51;;;;;;;5.88;4.63;;;;;;;;;;5012652;28;20030;-60
2024/02/25 13:25:18;;;;;;;6.88;4.35;;;;;;;;;;5011273;28;20029;-59
2024/02/25 13:27:45;;;;;;;6.47;4.50;;;;;;;;;;5011642;28;20476;-59
2024/02/25 13:30:11;;;;;;;5.00;3.90;;;;;;;;;;5010171;28;20032;-59
2024/02/25 13:32:37;;;;;;;4.90;4.05;;;;;;;;;;5011885;28;20105;-59
2024/02/25 13:35:04;;;;;;;5.10;4.32;;;;;;;;;;5011486;28;20543;-58
2024/02/25 13:37:30;;;;;;;5.22;4.32;;;;;;;;;;5005964;28;20026;-58
2024/02/25 13:39:56;;;;;;;5.28;4.78;;;;;;;;;;4997168;28;20060;-59
2024/02/25 13:42:22;;;;;;;6.10;3.95;;;;;;;;;;4999146;28;20023;-59
2024/02/25 13:44:48;;;;;;;5.53;4.85;;;;;;;;;;5005126;28;20109;-57
2024/02/25 13:47:15;;;;;;;8.13;4.85;;;;;;;;;;5016494;28;20030;-59
2024/02/25 13:49:41;;;;;;;5.20;4.70;;;;;;;;;;5016408;28;20037;-59
2024/02/25 13:52:07;;;;;;;5.45;4.88;;;;;;;;;;5016225;28;20033;-59
2024/02/25 13:54:33;;;;;;;4.95;4.05;;;;;;;;;;5016434;28;20111;-59
2024/02/25 13:56:59;;;;;;;5.13;4.32;;;;;;;;;;5016336;28;20021;-59
2024/02/25 13:59:26;;;;;;;4.93;4.40;;;;;;;;;;5015809;28;20161;-59
2024/02/25 14:01:52;;;;;;;4.82;4.30;;;;;;;;;;5016372;28;20030;-59
2024/02/25 14:04:18;;;;;;;6.63;4.32;;;;;;;;;;5016331;28;20156;-59
2024/02/25 14:06:45;;;;;;;7.88;5.82;;;;;;;;;;5016129;28;20100;-59
2024/02/25 14:09:11;;;;;;;11.88;7.32;;;;;;;;;;5013721;28;20085;-59
2024/02/25 14:11:37;;;;;;;5.97;5.28;;;;;;;;;;5015040;28;20568;-59
2024/02/25 14:14:03;;;;;;;5.50;4.63;;;;;;;;;;5014643;28;20133;-59
2024/02/25 14:16:30;;;;;;;5.07;4.00;;;;;;;;;;5016042;28;20026;-59
2024/02/25 14:18:57;;;;;;;5.32;4.32;;;;;;;;;;5015925;28;20080;-58
2024/02/25 14:21:23;;;;;;;6.10;4.40;;;;;;;;;;5015762;28;20069;-58
2024/02/25 14:23:49;;;;;;;7.30;5.20;;;;;;;;;;5021636;28;20017;-58
2024/02/25 14:26:15;;;;;;;6.90;5.13;;;;;;;;;;5015815;28;20033;-59
2024/02/25 14:28:41;;;;;;;9.23;5.55;;;;;;;;;;5016049;28;20105;-59
2024/02/25 14:31:07;;;;;;;5.63;5.10;;;;;;;;;;5015977;28;20034;-59
2024/02/25 14:33:33;;;;;;;5.35;4.78;;;;;;;;;;5015739;28;20399;-59
2024/02/25 14:36:00;;;;;;;6.50;4.90;;;;;;;;;;5015693;28;20026;-56